sensor_id;sensor_type;location;lat;lon;timestamp;temperature;humidity
64705;DHT22;51131;52.298;13.686;2022-07-18T00:01:57;21.00;68.20
64705;DHT22;51131;52.298;13.686;2022-07-18T00:04:24;21.00;68.20
64705;DHT22;51131;52.298;13.686;2022-07-18T00:06:51;21.00;68.30
64705;DHT22;51131;52.298;13.686;2022-07-18T00:09:18;21.00;68.30
64705;DHT22;51131;52.298;13.686;2022-07-18T00:11:46;21.00;68.30
64705;DHT22;51131;52.298;13.686;2022-07-18T00:14:12;21.00;68.30
64705;DHT22;51131;52.298;13.686;2022-07-18T00:16:39;20.90;68.20
64705;DHT22;51131;52.298;13.686;2022-07-18T00:19:06;20.90;68.30
64705;DHT22;51131;52.298;13.686;2022-07-18T00:21:33;21.00;68.30
64705;DHT22;51131;52.298;13.686;2022-07-18T00:24:00;21.00;68.40
64705;DHT22;51131;52.298;13.686;2022-07-18T00:26:27;21.00;68.40
64705;DHT22;51131;52.298;13.686;2022-07-18T00:28:54;20.90;68.40
64705;DHT22;51131;52.298;13.686;2022-07-18T00:31:21;20.90;68.30
64705;DHT22;51131;52.298;13.686;2022-07-18T00:33:48;21.00;68.40
64705;DHT22;51131;52.298;13.686;2022-07-18T00:36:14;20.90;68.40
64705;DHT22;51131;52.298;13.686;2022-07-18T00:38:41;20.90;68.40
64705;DHT22;51131;52.298;13.686;2022-07-18T00:41:08;20.90;68.40
64705;DHT22;51131;52.298;13.686;2022-07-18T00:43:35;20.90;68.30
64705;DHT22;51131;52.298;13.686;2022-07-18T00:46:01;20.90;68.40
64705;DHT22;51131;52.298;13.686;2022-07-18T00:48:28;21.00;68.50
64705;DHT22;51131;52.298;13.686;2022-07-18T00:50:55;20.90;68.40
64705;DHT22;51131;52.298;13.686;2022-07-18T00:53:21;20.90;68.40
64705;DHT22;51131;52.298;13.686;2022-07-18T00:55:50;20.90;68.40
64705;DHT22;51131;52.298;13.686;2022-07-18T00:58:18;20.90;68.40
64705;DHT22;51131;52.298;13.686;2022-07-18T01:00:44;20.90;68.50
64705;DHT22;51131;52.298;13.686;2022-07-18T01:03:30;20.90;69.10
64705;DHT22;51131;52.298;13.686;2022-07-18T01:05:56;20.90;68.40
64705;DHT22;51131;52.298;13.686;2022-07-18T01:08:23;20.90;68.50
64705;DHT22;51131;52.298;13.686;2022-07-18T01:10:50;20.80;68.30
64705;DHT22;51131;52.298;13.686;2022-07-18T01:13:17;20.90;68.60
64705;DHT22;51131;52.298;13.686;2022-07-18T01:15:44;20.90;68.50
64705;DHT22;51131;52.298;13.686;2022-07-18T01:18:11;20.90;68.60
64705;DHT22;51131;52.298;13.686;2022-07-18T01:20:38;20.90;68.60
64705;DHT22;51131;52.298;13.686;2022-07-18T01:23:05;20.90;68.60
64705;DHT22;51131;52.298;13.686;2022-07-18T01:25:32;20.90;68.60
64705;DHT22;51131;52.298;13.686;2022-07-18T01:27:58;20.90;68.60
64705;DHT22;51131;52.298;13.686;2022-07-18T01:30:25;20.90;68.50
64705;DHT22;51131;52.298;13.686;2022-07-18T01:32:59;20.90;68.40
64705;DHT22;51131;52.298;13.686;2022-07-18T01:35:26;20.90;68.40
64705;DHT22;51131;52.298;13.686;2022-07-18T01:37:54;21.00;68.40
64705;DHT22;51131;52.298;13.686;2022-07-18T01:40:21;20.80;68.10
64705;DHT22;51131;52.298;13.686;2022-07-18T01:42:48;21.00;68.20
64705;DHT22;51131;52.298;13.686;2022-07-18T01:45:15;21.00;68.10
64705;DHT22;51131;52.298;13.686;2022-07-18T01:47:42;21.00;68.10
64705;DHT22;51131;52.298;13.686;2022-07-18T01:50:10;21.00;68.10
64705;DHT22;51131;52.298;13.686;2022-07-18T01:52:37;21.00;68.10
64705;DHT22;51131;52.298;13.686;2022-07-18T01:55:05;21.00;68.10
64705;DHT22;51131;52.298;13.686;2022-07-18T01:57:32;21.00;68.00
64705;DHT22;51131;52.298;13.686;2022-07-18T01:59:59;21.00;68.00
64705;DHT22;51131;52.298;13.686;2022-07-18T02:02:26;21.00;68.00
64705;DHT22;51131;52.298;13.686;2022-07-18T02:04:53;21.00;68.00
64705;DHT22;51131;52.298;13.686;2022-07-18T02:07:36;21.00;68.00
64705;DHT22;51131;52.298;13.686;2022-07-18T02:10:04;21.00;68.00
64705;DHT22;51131;52.298;13.686;2022-07-18T02:12:32;21.00;68.00
64705;DHT22;51131;52.298;13.686;2022-07-18T02:14:59;21.00;68.00
64705;DHT22;51131;52.298;13.686;2022-07-18T02:17:25;21.00;68.00
64705;DHT22;51131;52.298;13.686;2022-07-18T02:19:52;21.00;68.00
64705;DHT22;51131;52.298;13.686;2022-07-18T02:22:19;21.00;68.00
64705;DHT22;51131;52.298;13.686;2022-07-18T02:24:45;21.00;68.00
64705;DHT22;51131;52.298;13.686;2022-07-18T02:27:12;21.00;68.00
64705;DHT22;51131;52.298;13.686;2022-07-18T02:29:39;21.00;68.00
64705;DHT22;51131;52.298;13.686;2022-07-18T02:32:06;21.00;68.10
64705;DHT22;51131;52.298;13.686;2022-07-18T02:34:33;21.00;68.10
64705;DHT22;51131;52.298;13.686;2022-07-18T02:36:59;21.00;68.10
64705;DHT22;51131;52.298;13.686;2022-07-18T02:39:26;20.90;68.00
64705;DHT22;51131;52.298;13.686;2022-07-18T02:41:54;21.00;68.10
64705;DHT22;51131;52.298;13.686;2022-07-18T02:44:21;21.10;68.20
64705;DHT22;51131;52.298;13.686;2022-07-18T02:46:48;21.00;68.10
64705;DHT22;51131;52.298;13.686;2022-07-18T02:49:15;20.90;68.00
64705;DHT22;51131;52.298;13.686;2022-07-18T02:51:57;20.90;68.00
64705;DHT22;51131;52.298;13.686;2022-07-18T02:54:24;20.90;68.10
64705;DHT22;51131;52.298;13.686;2022-07-18T02:56:51;20.90;68.10
64705;DHT22;51131;52.298;13.686;2022-07-18T02:59:18;20.90;68.10
64705;DHT22;51131;52.298;13.686;2022-07-18T03:01:45;20.90;68.10
64705;DHT22;51131;52.298;13.686;2022-07-18T03:04:12;20.90;68.00
64705;DHT22;51131;52.298;13.686;2022-07-18T03:06:39;20.90;68.10
64705;DHT22;51131;52.298;13.686;2022-07-18T03:09:06;20.90;68.10
64705;DHT22;51131;52.298;13.686;2022-07-18T03:11:32;20.90;68.10
64705;DHT22;51131;52.298;13.686;2022-07-18T03:13:59;20.90;68.10
64705;DHT22;51131;52.298;13.686;2022-07-18T03:16:26;20.90;68.10
64705;DHT22;51131;52.298;13.686;2022-07-18T03:18:53;20.90;68.10
64705;DHT22;51131;52.298;13.686;2022-07-18T03:21:20;20.80;68.00
64705;DHT22;51131;52.298;13.686;2022-07-18T03:23:47;20.90;68.10
64705;DHT22;51131;52.298;13.686;2022-07-18T03:26:14;20.90;68.10
64705;DHT22;51131;52.298;13.686;2022-07-18T03:28:41;20.90;68.10
64705;DHT22;51131;52.298;13.686;2022-07-18T03:31:07;20.90;68.00
64705;DHT22;51131;52.298;13.686;2022-07-18T03:33:34;20.90;68.00
64705;DHT22;51131;52.298;13.686;2022-07-18T03:36:01;20.80;67.90
64705;DHT22;51131;52.298;13.686;2022-07-18T03:38:27;20.80;67.90
64705;DHT22;51131;52.298;13.686;2022-07-18T03:40:54;20.80;67.90
64705;DHT22;51131;52.298;13.686;2022-07-18T03:43:21;20.80;67.90
64705;DHT22;51131;52.298;13.686;2022-07-18T03:45:48;20.80;67.90
64705;DHT22;51131;52.298;13.686;2022-07-18T03:48:14;20.80;67.90
64705;DHT22;51131;52.298;13.686;2022-07-18T03:50:41;20.60;67.70
64705;DHT22;51131;52.298;13.686;2022-07-18T03:53:08;20.80;67.90
64705;DHT22;51131;52.298;13.686;2022-07-18T03:55:35;20.80;67.90
64705;DHT22;51131;52.298;13.686;2022-07-18T03:58:01;20.80;67.90
64705;DHT22;51131;52.298;13.686;2022-07-18T04:00:29;20.90;68.00
64705;DHT22;51131;52.298;13.686;2022-07-18T04:02:56;20.90;68.10
64705;DHT22;51131;52.298;13.686;2022-07-18T04:05:30;20.90;68.00
64705;DHT22;51131;52.298;13.686;2022-07-18T04:07:57;20.90;68.00
64705;DHT22;51131;52.298;13.686;2022-07-18T04:10:24;20.90;68.00
64705;DHT22;51131;52.298;13.686;2022-07-18T04:12:51;20.90;68.00
64705;DHT22;51131;52.298;13.686;2022-07-18T04:15:19;21.00;68.10
64705;DHT22;51131;52.298;13.686;2022-07-18T04:17:46;20.90;67.90
64705;DHT22;51131;52.298;13.686;2022-07-18T04:20:13;20.90;68.00
64705;DHT22;51131;52.298;13.686;2022-07-18T04:22:51;20.90;67.90
64705;DHT22;51131;52.298;13.686;2022-07-18T04:25:18;20.90;68.00
64705;DHT22;51131;52.298;13.686;2022-07-18T04:27:46;20.90;68.00
64705;DHT22;51131;52.298;13.686;2022-07-18T04:30:13;20.90;67.90
64705;DHT22;51131;52.298;13.686;2022-07-18T04:32:40;20.90;67.90
64705;DHT22;51131;52.298;13.686;2022-07-18T04:35:08;20.90;68.00
64705;DHT22;51131;52.298;13.686;2022-07-18T04:37:35;20.90;68.00
64705;DHT22;51131;52.298;13.686;2022-07-18T04:40:02;20.90;67.90
64705;DHT22;51131;52.298;13.686;2022-07-18T04:42:29;20.90;68.00
64705;DHT22;51131;52.298;13.686;2022-07-18T04:44:57;20.90;68.00
64705;DHT22;51131;52.298;13.686;2022-07-18T04:47:27;20.90;68.00
64705;DHT22;51131;52.298;13.686;2022-07-18T04:49:55;20.90;68.00
64705;DHT22;51131;52.298;13.686;2022-07-18T04:52:22;20.90;68.00
64705;DHT22;51131;52.298;13.686;2022-07-18T04:54:49;20.90;68.40
64705;DHT22;51131;52.298;13.686;2022-07-18T04:57:17;20.90;68.00
64705;DHT22;51131;52.298;13.686;2022-07-18T04:59:45;20.90;68.00
64705;DHT22;51131;52.298;13.686;2022-07-18T05:02:12;20.90;68.00
64705;DHT22;51131;52.298;13.686;2022-07-18T05:04:39;20.90;68.00
64705;DHT22;51131;52.298;13.686;2022-07-18T05:07:06;20.90;68.00
64705;DHT22;51131;52.298;13.686;2022-07-18T05:09:33;20.90;68.00
64705;DHT22;51131;52.298;13.686;2022-07-18T05:12:00;20.90;68.00
64705;DHT22;51131;52.298;13.686;2022-07-18T05:14:27;20.90;68.00
64705;DHT22;51131;52.298;13.686;2022-07-18T05:16:53;20.90;68.00
64705;DHT22;51131;52.298;13.686;2022-07-18T05:19:20;20.90;68.10
64705;DHT22;51131;52.298;13.686;2022-07-18T05:21:47;20.80;68.00
64705;DHT22;51131;52.298;13.686;2022-07-18T05:24:14;20.80;68.00
64705;DHT22;51131;52.298;13.686;2022-07-18T05:26:41;20.80;68.00
64705;DHT22;51131;52.298;13.686;2022-07-18T05:29:08;20.80;68.00
64705;DHT22;51131;52.298;13.686;2022-07-18T05:31:34;20.80;68.10
64705;DHT22;51131;52.298;13.686;2022-07-18T05:34:01;20.80;68.10
64705;DHT22;51131;52.298;13.686;2022-07-18T05:36:28;20.80;68.10
64705;DHT22;51131;52.298;13.686;2022-07-18T05:38:55;20.90;68.20
64705;DHT22;51131;52.298;13.686;2022-07-18T05:41:22;20.90;68.20
64705;DHT22;51131;52.298;13.686;2022-07-18T05:43:48;20.90;68.20
64705;DHT22;51131;52.298;13.686;2022-07-18T05:46:15;20.90;68.00
64705;DHT22;51131;52.298;13.686;2022-07-18T05:48:43;21.00;68.00
64705;DHT22;51131;52.298;13.686;2022-07-18T05:51:10;21.00;68.00
64705;DHT22;51131;52.298;13.686;2022-07-18T05:53:37;21.00;67.90
64705;DHT22;51131;52.298;13.686;2022-07-18T05:56:04;21.00;67.80
64705;DHT22;51131;52.298;13.686;2022-07-18T05:58:31;21.00;67.80
64705;DHT22;51131;52.298;13.686;2022-07-18T06:00:57;21.00;67.70
64705;DHT22;51131;52.298;13.686;2022-07-18T06:03:24;21.00;67.60
64705;DHT22;51131;52.298;13.686;2022-07-18T06:05:51;21.00;67.60
64705;DHT22;51131;52.298;13.686;2022-07-18T06:08:25;21.00;67.60
64705;DHT22;51131;52.298;13.686;2022-07-18T06:10:52;21.00;67.60
64705;DHT22;51131;52.298;13.686;2022-07-18T06:13:18;21.00;67.60
64705;DHT22;51131;52.298;13.686;2022-07-18T06:15:45;21.00;67.60
64705;DHT22;51131;52.298;13.686;2022-07-18T06:18:12;21.00;67.60
64705;DHT22;51131;52.298;13.686;2022-07-18T06:20:39;21.00;67.70
64705;DHT22;51131;52.298;13.686;2022-07-18T06:23:06;21.00;67.70
64705;DHT22;51131;52.298;13.686;2022-07-18T06:25:32;21.00;67.80
64705;DHT22;51131;52.298;13.686;2022-07-18T06:27:59;21.00;67.80
64705;DHT22;51131;52.298;13.686;2022-07-18T06:30:26;21.00;67.80
64705;DHT22;51131;52.298;13.686;2022-07-18T06:32:52;21.10;68.00
64705;DHT22;51131;52.298;13.686;2022-07-18T06:35:19;21.00;68.00
64705;DHT22;51131;52.298;13.686;2022-07-18T06:37:46;21.00;68.00
64705;DHT22;51131;52.298;13.686;2022-07-18T06:40:12;21.00;68.00
64705;DHT22;51131;52.298;13.686;2022-07-18T06:42:39;21.00;68.10
64705;DHT22;51131;52.298;13.686;2022-07-18T06:45:07;21.10;68.90
64705;DHT22;51131;52.298;13.686;2022-07-18T06:47:38;21.00;68.20
64705;DHT22;51131;52.298;13.686;2022-07-18T06:50:05;21.00;68.30
64705;DHT22;51131;52.298;13.686;2022-07-18T06:52:32;21.00;68.40
64705;DHT22;51131;52.298;13.686;2022-07-18T06:54:58;21.00;68.40
64705;DHT22;51131;52.298;13.686;2022-07-18T06:57:27;21.00;68.60
64705;DHT22;51131;52.298;13.686;2022-07-18T06:59:54;21.00;68.50
64705;DHT22;51131;52.298;13.686;2022-07-18T07:02:24;21.00;68.70
64705;DHT22;51131;52.298;13.686;2022-07-18T07:04:51;21.00;68.70
64705;DHT22;51131;52.298;13.686;2022-07-18T07:07:18;21.00;68.80
64705;DHT22;51131;52.298;13.686;2022-07-18T07:09:45;21.00;68.80
64705;DHT22;51131;52.298;13.686;2022-07-18T07:12:12;21.00;68.80
64705;DHT22;51131;52.298;13.686;2022-07-18T07:14:38;21.00;68.90
64705;DHT22;51131;52.298;13.686;2022-07-18T07:17:05;21.60;69.50
64705;DHT22;51131;52.298;13.686;2022-07-18T07:19:32;21.00;68.90
64705;DHT22;51131;52.298;13.686;2022-07-18T07:21:59;21.00;68.90
64705;DHT22;51131;52.298;13.686;2022-07-18T07:24:26;21.00;68.80
64705;DHT22;51131;52.298;13.686;2022-07-18T07:26:53;21.00;68.80
64705;DHT22;51131;52.298;13.686;2022-07-18T07:29:22;21.00;68.80
64705;DHT22;51131;52.298;13.686;2022-07-18T07:31:48;21.00;69.10
64705;DHT22;51131;52.298;13.686;2022-07-18T07:34:16;21.00;69.10
64705;DHT22;51131;52.298;13.686;2022-07-18T07:36:43;21.00;69.00
64705;DHT22;51131;52.298;13.686;2022-07-18T07:39:09;21.00;69.20
64705;DHT22;51131;52.298;13.686;2022-07-18T07:41:36;21.00;69.20
64705;DHT22;51131;52.298;13.686;2022-07-18T07:44:03;21.00;69.20
64705;DHT22;51131;52.298;13.686;2022-07-18T07:46:30;21.00;69.10
64705;DHT22;51131;52.298;13.686;2022-07-18T07:48:57;21.00;68.80
64705;DHT22;51131;52.298;13.686;2022-07-18T07:51:24;21.00;69.20
64705;DHT22;51131;52.298;13.686;2022-07-18T07:54:00;21.00;69.10
64705;DHT22;51131;52.298;13.686;2022-07-18T07:56:27;21.00;68.80
64705;DHT22;51131;52.298;13.686;2022-07-18T07:58:55;21.00;68.40
64705;DHT22;51131;52.298;13.686;2022-07-18T08:01:21;21.00;68.60
64705;DHT22;51131;52.298;13.686;2022-07-18T08:03:48;21.00;68.70
64705;DHT22;51131;52.298;13.686;2022-07-18T08:06:16;21.00;68.80
64705;DHT22;51131;52.298;13.686;2022-07-18T08:08:42;21.00;68.50
64705;DHT22;51131;52.298;13.686;2022-07-18T08:11:09;21.00;68.30
64705;DHT22;51131;52.298;13.686;2022-07-18T08:13:36;21.00;68.60
64705;DHT22;51131;52.298;13.686;2022-07-18T08:16:03;21.00;68.60
64705;DHT22;51131;52.298;13.686;2022-07-18T08:18:30;21.00;68.20
64705;DHT22;51131;52.298;13.686;2022-07-18T08:20:57;21.00;67.50
64705;DHT22;51131;52.298;13.686;2022-07-18T08:23:23;21.00;67.80
64705;DHT22;51131;52.298;13.686;2022-07-18T08:25:50;21.00;68.30
64705;DHT22;51131;52.298;13.686;2022-07-18T08:28:17;21.00;68.40
64705;DHT22;51131;52.298;13.686;2022-07-18T08:30:44;21.00;68.20
64705;DHT22;51131;52.298;13.686;2022-07-18T08:33:11;21.00;67.40
64705;DHT22;51131;52.298;13.686;2022-07-18T08:35:38;21.00;68.20
64705;DHT22;51131;52.298;13.686;2022-07-18T08:38:05;21.00;68.10
64705;DHT22;51131;52.298;13.686;2022-07-18T08:40:31;21.00;68.80
64705;DHT22;51131;52.298;13.686;2022-07-18T08:42:58;21.00;68.40
64705;DHT22;51131;52.298;13.686;2022-07-18T08:45:45;21.00;68.80
64705;DHT22;51131;52.298;13.686;2022-07-18T08:48:13;21.00;68.50
64705;DHT22;51131;52.298;13.686;2022-07-18T08:50:47;21.00;68.70
64705;DHT22;51131;52.298;13.686;2022-07-18T08:53:15;21.00;68.50
64705;DHT22;51131;52.298;13.686;2022-07-18T08:55:42;21.60;69.30
64705;DHT22;51131;52.298;13.686;2022-07-18T08:58:09;21.00;68.80
64705;DHT22;51131;52.298;13.686;2022-07-18T09:00:58;21.00;69.00
64705;DHT22;51131;52.298;13.686;2022-07-18T09:03:25;21.00;68.20
64705;DHT22;51131;52.298;13.686;2022-07-18T09:06:12;21.10;67.30
64705;DHT22;51131;52.298;13.686;2022-07-18T09:08:40;21.10;67.80
64705;DHT22;51131;52.298;13.686;2022-07-18T09:11:22;21.10;67.70
64705;DHT22;51131;52.298;13.686;2022-07-18T09:14:09;21.10;68.20
64705;DHT22;51131;52.298;13.686;2022-07-18T09:17:03;21.20;68.50
64705;DHT22;51131;52.298;13.686;2022-07-18T09:19:30;21.20;68.70
64705;DHT22;51131;52.298;13.686;2022-07-18T09:22:20;21.20;68.30
64705;DHT22;51131;52.298;13.686;2022-07-18T09:27:31;21.20;68.60
64705;DHT22;51131;52.298;13.686;2022-07-18T09:32:39;21.20;68.60
64705;DHT22;51131;52.298;13.686;2022-07-18T09:35:07;21.20;68.30
64705;DHT22;51131;52.298;13.686;2022-07-18T09:37:34;21.20;68.00
64705;DHT22;51131;52.298;13.686;2022-07-18T09:40:15;21.20;68.20
64705;DHT22;51131;52.298;13.686;2022-07-18T09:42:49;21.20;68.30
64705;DHT22;51131;52.298;13.686;2022-07-18T09:45:23;21.20;68.50
64705;DHT22;51131;52.298;13.686;2022-07-18T09:47:51;21.20;68.50
64705;DHT22;51131;52.298;13.686;2022-07-18T09:50:22;21.20;68.90
64705;DHT22;51131;52.298;13.686;2022-07-18T09:52:59;21.20;68.00
64705;DHT22;51131;52.298;13.686;2022-07-18T09:55:48;21.20;68.10
64705;DHT22;51131;52.298;13.686;2022-07-18T09:58:16;21.20;68.30
64705;DHT22;51131;52.298;13.686;2022-07-18T10:00:44;21.20;68.60
64705;DHT22;51131;52.298;13.686;2022-07-18T10:03:11;21.20;68.20
64705;DHT22;51131;52.298;13.686;2022-07-18T10:05:38;21.20;68.30
64705;DHT22;51131;52.298;13.686;2022-07-18T10:08:07;21.20;68.30
64705;DHT22;51131;52.298;13.686;2022-07-18T10:10:34;21.20;68.60
64705;DHT22;51131;52.298;13.686;2022-07-18T10:13:02;21.20;68.10
64705;DHT22;51131;52.298;13.686;2022-07-18T10:15:30;21.20;67.60
64705;DHT22;51131;52.298;13.686;2022-07-18T10:17:58;21.20;67.90
64705;DHT22;51131;52.298;13.686;2022-07-18T10:20:26;21.20;67.20
64705;DHT22;51131;52.298;13.686;2022-07-18T10:22:54;21.20;67.40
64705;DHT22;51131;52.298;13.686;2022-07-18T10:25:22;21.20;68.30
64705;DHT22;51131;52.298;13.686;2022-07-18T10:30:31;21.20;68.20
64705;DHT22;51131;52.298;13.686;2022-07-18T10:32:59;21.20;68.50
64705;DHT22;51131;52.298;13.686;2022-07-18T10:38:20;21.20;68.50
64705;DHT22;51131;52.298;13.686;2022-07-18T10:43:34;21.10;68.80
64705;DHT22;51131;52.298;13.686;2022-07-18T10:46:02;21.20;67.90
64705;DHT22;51131;52.298;13.686;2022-07-18T10:51:18;21.20;68.20
64705;DHT22;51131;52.298;13.686;2022-07-18T10:58:54;21.20;68.70
64705;DHT22;51131;52.298;13.686;2022-07-18T11:01:21;21.20;68.70
64705;DHT22;51131;52.298;13.686;2022-07-18T11:03:49;21.20;69.10
64705;DHT22;51131;52.298;13.686;2022-07-18T11:06:16;21.10;67.80
64705;DHT22;51131;52.298;13.686;2022-07-18T11:08:43;21.20;67.70
64705;DHT22;51131;52.298;13.686;2022-07-18T11:11:09;21.10;67.90
64705;DHT22;51131;52.298;13.686;2022-07-18T11:13:38;21.20;68.10
64705;DHT22;51131;52.298;13.686;2022-07-18T11:21:24;21.10;69.10
64705;DHT22;51131;52.298;13.686;2022-07-18T11:23:52;21.20;69.40
64705;DHT22;51131;52.298;13.686;2022-07-18T11:26:20;21.10;68.00
64705;DHT22;51131;52.298;13.686;2022-07-18T11:28:56;21.20;67.40
64705;DHT22;51131;52.298;13.686;2022-07-18T11:31:23;21.30;66.40
64705;DHT22;51131;52.298;13.686;2022-07-18T11:33:50;21.40;65.40
64705;DHT22;51131;52.298;13.686;2022-07-18T11:36:19;21.50;65.90
64705;DHT22;51131;52.298;13.686;2022-07-18T11:41:13;21.50;66.00
64705;DHT22;51131;52.298;13.686;2022-07-18T11:43:40;21.50;66.10
64705;DHT22;51131;52.298;13.686;2022-07-18T11:46:08;21.50;66.40
64705;DHT22;51131;52.298;13.686;2022-07-18T11:48:42;21.50;66.80
64705;DHT22;51131;52.298;13.686;2022-07-18T11:51:19;21.50;66.40
64705;DHT22;51131;52.298;13.686;2022-07-18T11:53:47;21.50;66.30
64705;DHT22;51131;52.298;13.686;2022-07-18T11:56:14;21.50;65.90
64705;DHT22;51131;52.298;13.686;2022-07-18T11:58:42;21.50;66.40
64705;DHT22;51131;52.298;13.686;2022-07-18T12:01:09;21.40;66.70
64705;DHT22;51131;52.298;13.686;2022-07-18T12:03:39;21.40;66.60
64705;DHT22;51131;52.298;13.686;2022-07-18T12:06:09;21.40;67.30
64705;DHT22;51131;52.298;13.686;2022-07-18T12:08:40;21.40;67.40
64705;DHT22;51131;52.298;13.686;2022-07-18T12:13:43;21.40;67.70
64705;DHT22;51131;52.298;13.686;2022-07-18T12:18:57;21.40;67.40
64705;DHT22;51131;52.298;13.686;2022-07-18T12:21:37;21.40;67.20
64705;DHT22;51131;52.298;13.686;2022-07-18T12:30:25;21.40;67.90
64705;DHT22;51131;52.298;13.686;2022-07-18T12:32:35;21.40;68.00
64705;DHT22;51131;52.298;13.686;2022-07-18T12:35:05;21.40;68.20
64705;DHT22;51131;52.298;13.686;2022-07-18T12:37:32;21.40;68.00
64705;DHT22;51131;52.298;13.686;2022-07-18T12:39:59;21.30;67.90
64705;DHT22;51131;52.298;13.686;2022-07-18T12:42:46;21.30;67.80
64705;DHT22;51131;52.298;13.686;2022-07-18T12:45:15;21.30;68.10
64705;DHT22;51131;52.298;13.686;2022-07-18T12:47:42;21.40;68.20
64705;DHT22;51131;52.298;13.686;2022-07-18T12:50:09;21.30;68.50
64705;DHT22;51131;52.298;13.686;2022-07-18T12:52:40;21.30;68.20
64705;DHT22;51131;52.298;13.686;2022-07-18T12:55:07;21.30;68.30
64705;DHT22;51131;52.298;13.686;2022-07-18T12:57:34;21.30;69.00
64705;DHT22;51131;52.298;13.686;2022-07-18T13:00:01;21.50;69.00
64705;DHT22;51131;52.298;13.686;2022-07-18T13:02:28;21.30;68.20
64705;DHT22;51131;52.298;13.686;2022-07-18T13:04:55;21.30;68.20
64705;DHT22;51131;52.298;13.686;2022-07-18T13:07:21;21.30;68.10
64705;DHT22;51131;52.298;13.686;2022-07-18T13:09:48;21.30;68.60
64705;DHT22;51131;52.298;13.686;2022-07-18T13:12:15;21.30;68.80
64705;DHT22;51131;52.298;13.686;2022-07-18T13:14:42;21.30;68.60
64705;DHT22;51131;52.298;13.686;2022-07-18T13:17:09;21.30;68.50
64705;DHT22;51131;52.298;13.686;2022-07-18T13:19:35;21.30;68.70
64705;DHT22;51131;52.298;13.686;2022-07-18T13:22:02;21.30;68.80
64705;DHT22;51131;52.298;13.686;2022-07-18T13:24:29;21.30;68.60
64705;DHT22;51131;52.298;13.686;2022-07-18T13:27:02;21.30;68.00
64705;DHT22;51131;52.298;13.686;2022-07-18T13:29:29;21.30;68.60
64705;DHT22;51131;52.298;13.686;2022-07-18T13:31:55;21.20;68.40
64705;DHT22;51131;52.298;13.686;2022-07-18T13:34:23;21.30;69.00
64705;DHT22;51131;52.298;13.686;2022-07-18T13:36:52;21.20;68.80
64705;DHT22;51131;52.298;13.686;2022-07-18T13:39:19;21.30;69.00
64705;DHT22;51131;52.298;13.686;2022-07-18T13:41:46;21.30;69.00
64705;DHT22;51131;52.298;13.686;2022-07-18T13:44:13;21.30;68.60
64705;DHT22;51131;52.298;13.686;2022-07-18T13:46:40;21.30;68.60
64705;DHT22;51131;52.298;13.686;2022-07-18T13:49:08;21.30;69.00
64705;DHT22;51131;52.298;13.686;2022-07-18T13:51:34;21.30;69.10
64705;DHT22;51131;52.298;13.686;2022-07-18T13:54:04;21.30;69.10
64705;DHT22;51131;52.298;13.686;2022-07-18T13:56:31;21.30;69.30
64705;DHT22;51131;52.298;13.686;2022-07-18T13:58:58;21.20;69.50
64705;DHT22;51131;52.298;13.686;2022-07-18T14:01:24;21.20;69.40
64705;DHT22;51131;52.298;13.686;2022-07-18T14:03:51;21.20;69.30
64705;DHT22;51131;52.298;13.686;2022-07-18T14:06:18;22.60;70.70
64705;DHT22;51131;52.298;13.686;2022-07-18T14:08:45;21.60;69.60
64705;DHT22;51131;52.298;13.686;2022-07-18T14:11:12;21.20;70.00
64705;DHT22;51131;52.298;13.686;2022-07-18T14:13:39;21.20;69.30
64705;DHT22;51131;52.298;13.686;2022-07-18T14:16:05;21.20;69.40
64705;DHT22;51131;52.298;13.686;2022-07-18T14:18:32;21.40;69.60
64705;DHT22;51131;52.298;13.686;2022-07-18T14:20:59;21.20;69.60
64705;DHT22;51131;52.298;13.686;2022-07-18T14:23:26;21.20;69.40
64705;DHT22;51131;52.298;13.686;2022-07-18T14:25:53;21.20;69.50
64705;DHT22;51131;52.298;13.686;2022-07-18T14:28:19;21.20;69.40
64705;DHT22;51131;52.298;13.686;2022-07-18T14:30:46;21.20;69.50
64705;DHT22;51131;52.298;13.686;2022-07-18T14:33:13;21.20;69.40
64705;DHT22;51131;52.298;13.686;2022-07-18T14:35:40;21.20;69.40
64705;DHT22;51131;52.298;13.686;2022-07-18T14:38:06;21.20;69.40
64705;DHT22;51131;52.298;13.686;2022-07-18T14:40:34;21.20;69.50
64705;DHT22;51131;52.298;13.686;2022-07-18T14:43:00;21.20;69.80
64705;DHT22;51131;52.298;13.686;2022-07-18T14:45:27;21.20;69.80
64705;DHT22;51131;52.298;13.686;2022-07-18T14:47:59;21.20;69.60
64705;DHT22;51131;52.298;13.686;2022-07-18T14:50:25;21.20;69.70
64705;DHT22;51131;52.298;13.686;2022-07-18T14:52:52;21.10;69.60
64705;DHT22;51131;52.298;13.686;2022-07-18T14:55:19;21.20;69.80
64705;DHT22;51131;52.298;13.686;2022-07-18T14:57:46;21.10;69.60
64705;DHT22;51131;52.298;13.686;2022-07-18T15:00:21;21.20;69.60
64705;DHT22;51131;52.298;13.686;2022-07-18T15:02:48;21.10;69.50
64705;DHT22;51131;52.298;13.686;2022-07-18T15:05:15;21.10;69.80
64705;DHT22;51131;52.298;13.686;2022-07-18T15:07:42;21.20;69.80
64705;DHT22;51131;52.298;13.686;2022-07-18T15:10:09;21.20;69.60
64705;DHT22;51131;52.298;13.686;2022-07-18T15:12:36;21.10;69.50
64705;DHT22;51131;52.298;13.686;2022-07-18T15:15:03;21.20;69.80
64705;DHT22;51131;52.298;13.686;2022-07-18T15:17:30;21.10;69.70
64705;DHT22;51131;52.298;13.686;2022-07-18T15:19:57;21.20;69.80
64705;DHT22;51131;52.298;13.686;2022-07-18T15:22:24;21.20;69.90
64705;DHT22;51131;52.298;13.686;2022-07-18T15:24:50;21.20;70.30
64705;DHT22;51131;52.298;13.686;2022-07-18T15:27:17;21.20;69.40
64705;DHT22;51131;52.298;13.686;2022-07-18T15:29:44;21.10;69.70
64705;DHT22;51131;52.298;13.686;2022-07-18T15:32:11;21.20;69.80
64705;DHT22;51131;52.298;13.686;2022-07-18T15:34:38;21.20;69.60
64705;DHT22;51131;52.298;13.686;2022-07-18T15:37:05;21.20;68.20
64705;DHT22;51131;52.298;13.686;2022-07-18T15:39:32;21.20;69.00
64705;DHT22;51131;52.298;13.686;2022-07-18T15:41:59;21.10;69.30
64705;DHT22;51131;52.298;13.686;2022-07-18T15:44:26;21.20;69.40
64705;DHT22;51131;52.298;13.686;2022-07-18T15:46:52;21.10;69.80
64705;DHT22;51131;52.298;13.686;2022-07-18T15:49:19;21.10;69.70
64705;DHT22;51131;52.298;13.686;2022-07-18T15:51:46;21.20;69.70
64705;DHT22;51131;52.298;13.686;2022-07-18T15:54:15;21.10;69.50
64705;DHT22;51131;52.298;13.686;2022-07-18T15:56:43;21.10;68.60
64705;DHT22;51131;52.298;13.686;2022-07-18T15:59:10;21.10;69.20
64705;DHT22;51131;52.298;13.686;2022-07-18T16:01:36;22.20;70.70